Pagrindinis puslapis
METAR-TAF:

METAR-TAF

Oro uostai :

Nordholz, Vokietija

platuma: 53-46N, ilguma: 008-40E, Aukštis: 23 m

Dabartinis oras

Ataskaita buvo paskelbta 1 valandą ir 2 minutes, ne 09:20 UTC
Vėjas 16 kt iš Šiaurės Rytų
Temperatūra 18°C
Drėgmė 42%
Slėgis 1026 hPa
Matomumas 10 km arba daugiau
Mažai debesys ne aukštis 5000 ft
Su prošvaistėmis ne aukštis 13000 ft
Su prošvaistėmis ne aukštis 22000 ft

METAR: ETMN 310920Z 04016KT 9999 FEW050 BKN130 BKN220 18/05 Q1026 BLU

Laikas: 12:22 (10:22 UTC)


TAF: trūkstamas

Orai ataskaitas ir orų prognozės (METAR, TAF).

turimą stotys yra geltonos ir raudonos taškus žemėlapyje.

Perkelti pele per norėdami pamatyti stoties vardą.

Tada spustelėkite, norėdami matyti oro stebėjimo ir prognozės.

Norėdami pakeisti žemėlapį: spustelėkite ant žalios mygtukų su juodo kryžiaus žemyn,; žalią mygtuką su brūkšneliu, jei norite nutolinti; arba žalių rodyklių gretimoms žemėlapius.


METAR-TAF: